Time;durP1;ratioP1;P1;durP2;ratioP2;P2;SDS_P1;SDS_P2;PMS_P1;PMS_P2;Temp;Humidity;BMP_temperature;BMP_pressure;BME280_temperature;BME280_humidity;BME280_pressure;Samples;Min_cycle;Max_cycle;Signal;HPM_P1;HPM_P2
2023/03/26 00:01:22;;;;;;;18.50;11.38;;;;;;;8.87;100.00;98132.28;5087488;28;20043;-37
2023/03/26 00:03:52;;;;;;;14.70;9.85;;;;;;;8.88;100.00;98143.50;5062197;28;20404;-39
2023/03/26 00:06:23;;;;;;;15.82;10.27;;;;;;;8.86;100.00;98142.72;5084872;28;20044;-37
2023/03/26 00:08:50;;;;;;;16.02;10.38;;;;;;;8.86;100.00;98143.56;5053386;28;20082;-38
2023/03/26 00:11:18;;;;;;;17.10;10.25;;;;;;;8.87;100.00;98134.88;5088169;28;20039;-38
2023/03/26 00:13:45;;;;;;;16.17;10.48;;;;;;;8.84;100.00;98129.88;5088800;28;20087;-38
2023/03/26 00:16:16;;;;;;;16.25;10.27;;;;;;;8.88;100.00;98133.13;5069980;28;20043;-39
2023/03/26 00:18:42;;;;;;;16.90;10.73;;;;;;;8.89;100.00;98127.88;5080851;28;20044;-39
2023/03/26 00:21:12;;;;;;;16.25;10.65;;;;;;;8.90;100.00;98132.09;5067230;28;20056;-43
2023/03/26 00:23:40;;;;;;;15.50;10.05;;;;;;;8.89;100.00;98133.06;5073969;28;20515;-38
2023/03/26 00:26:09;;;;;;;15.90;10.40;;;;;;;8.89;100.00;98134.81;5086495;28;20043;-38
2023/03/26 00:28:39;;;;;;;15.25;10.02;;;;;;;8.88;100.00;98130.53;5085778;28;20069;-38
2023/03/26 00:31:07;;;;;;;18.20;10.90;;;;;;;8.59;100.00;98089.75;5073892;28;20060;-38
2023/03/26 00:33:37;;;;;;;18.27;11.52;;;;;;;8.88;100.00;98140.91;5060149;28;20056;-38
2023/03/26 00:36:08;;;;;;;17.88;10.57;;;;;;;8.89;100.00;98134.81;5077154;28;20040;-38
2023/03/26 00:38:37;;;;;;;17.48;10.63;;;;;;;8.89;100.00;98137.41;5087038;28;20036;-38
2023/03/26 00:41:06;;;;;;;17.75;10.23;;;;;;;8.89;100.00;98142.56;5086701;28;20056;-38
2023/03/26 00:43:34;;;;;;;15.37;10.80;;;;;;;8.86;100.00;98140.13;5084569;28;20052;-37
2023/03/26 00:46:01;;;;;;;15.88;10.25;;;;;;;8.85;100.00;98139.28;5072605;28;20297;-38
2023/03/26 00:48:28;;;;;;;18.90;10.63;;;;;;;8.83;100.00;98141.13;5086634;28;20040;-38
2023/03/26 00:50:55;;;;;;;20.45;11.60;;;;;;;8.76;100.00;98132.00;5086976;28;20036;-38
2023/03/26 00:53:22;;;;;;;18.17;11.35;;;;;;;8.78;100.00;98129.34;5081366;28;20075;-38
2023/03/26 00:55:48;;;;;;;16.75;10.07;;;;;;;8.77;100.00;98130.25;5088412;28;20252;-39
2023/03/26 00:58:15;;;;;;;19.65;11.23;;;;;;;8.77;100.00;98122.47;5082025;28;20062;-38
2023/03/26 01:01:01;;;;;;;17.33;10.65;;;;;;;8.77;100.00;98114.69;5084766;28;20044;-37
2023/03/26 01:03:34;;;;;;;21.65;10.82;;;;;;;8.76;100.00;98121.63;5087932;28;20128;-37
2023/03/26 01:06:10;;;;;;;22.52;11.05;;;;;;;8.76;100.00;98110.44;5087962;28;20078;-37
2023/03/26 01:08:48;;;;;;;16.48;9.60;;;;;;;8.72;100.00;98117.53;5069486;28;20051;-38
2023/03/26 01:11:20;;;;;;;20.52;10.75;;;;;;;8.69;100.00;98109.91;5088233;28;20528;-38
2023/03/26 01:13:51;;;;;;;15.75;10.38;;;;;;;8.70;100.00;98110.75;5035144;28;20131;-37
2023/03/26 01:16:26;;;;;;;15.80;10.50;;;;;;;8.67;100.00;98103.16;5054562;28;20058;-39
2023/03/26 01:18:53;;;;;;;18.90;10.60;;;;;;;8.63;100.00;98110.25;5062304;28;20040;-39
2023/03/26 01:21:21;;;;;;;16.95;10.30;;;;;;;8.59;100.00;98100.94;5085168;28;20044;-38
2023/03/26 01:23:59;;;;;;;18.65;10.98;;;;;;;8.58;100.00;98108.81;5086631;28;20040;-37
2023/03/26 01:26:51;;;;;;;19.80;10.95;;;;;;;8.53;100.00;98111.59;5079614;28;20041;-39
2023/03/26 01:29:42;;;;;;;15.35;9.80;;;;;;;8.49;100.00;98112.69;5084511;28;20048;-38
2023/03/26 01:32:21;;;;;;;19.33;11.20;;;;;;;8.44;100.00;98114.66;5090496;28;20031;-39
2023/03/26 01:35:11;;;;;;;17.02;10.55;;;;;;;8.37;100.00;98111.53;5073547;28;20462;-38
2023/03/26 01:38:21;;;;;;;21.00;11.05;;;;;;;8.34;100.00;98105.69;5088634;28;20043;-37
2023/03/26 01:40:54;;;;;;;17.65;11.43;;;;;;;8.14;100.00;98078.19;5064072;28;20434;-37
2023/03/26 01:43:21;;;;;;;17.63;10.40;;;;;;;8.34;100.00;98098.78;5072873;28;20040;-37
2023/03/26 01:45:48;;;;;;;16.92;10.82;;;;;;;8.38;100.00;98102.03;5090455;28;20063;-38
2023/03/26 01:48:14;;;;;;;21.85;11.25;;;;;;;8.39;100.00;98091.59;5056771;28;20052;-39
2023/03/26 01:50:41;;;;;;;15.98;10.77;;;;;;;8.39;100.00;98096.78;5072707;28;20038;-37
2023/03/26 01:53:08;;;;;;;18.33;10.40;;;;;;;8.39;100.00;98101.97;5071505;28;20048;-37
2023/03/26 01:55:42;;;;;;;17.42;11.02;;;;;;;8.40;100.00;98095.88;5076810;28;20055;-37
2023/03/26 01:58:17;;;;;;;21.63;11.52;;;;;;;8.39;100.00;98099.38;5071943;28;20040;-38
2023/03/26 02:01:01;;;;;;;15.52;10.48;;;;;;;8.38;100.00;98089.94;5090067;28;20040;-37
2023/03/26 02:03:32;;;;;;;21.55;10.98;;;;;;;8.34;100.00;98085.81;5073314;28;20055;-37
2023/03/26 02:06:10;;;;;;;17.42;10.90;;;;;;;8.28;100.00;98083.50;5072045;28;20048;-39
2023/03/26 02:08:41;;;;;;;19.33;11.57;;;;;;;8.29;100.00;98092.13;5080592;28;20040;-38
2023/03/26 02:11:12;;;;;;;23.40;11.98;;;;;;;8.14;100.00;98070.44;5052882;28;20471;-38
2023/03/26 02:13:41;;;;;;;19.27;10.98;;;;;;;8.28;100.00;98085.25;5083470;28;20036;-37
2023/03/26 02:16:13;;;;;;;16.92;10.73;;;;;;;8.31;100.00;98082.56;5089744;28;20040;-38
2023/03/26 02:18:39;;;;;;;18.77;10.70;;;;;;;8.33;100.00;98089.31;5089702;28;20523;-37
2023/03/26 02:21:11;;;;;;;15.48;9.85;;;;;;;8.36;100.00;98088.34;5089845;28;20048;-37
2023/03/26 02:23:45;;;;;;;19.40;10.15;;;;;;;8.37;100.00;98082.25;5072624;28;20043;-38
2023/03/26 02:26:13;;;;;;;14.43;9.52;;;;;;;8.37;100.00;98084.84;5053326;28;20462;-38
2023/03/26 02:28:52;;;;;;;16.40;9.85;;;;;;;8.36;100.00;98086.59;5069366;28;20040;-37
2023/03/26 02:31:18;;;;;;;18.10;9.10;;;;;;;8.35;100.00;98079.75;5068759;28;20111;-38
2023/03/26 02:33:46;;;;;;;14.63;9.23;;;;;;;8.35;100.00;98077.16;5069390;28;20040;-38
2023/03/26 02:36:14;;;;;;;16.65;9.73;;;;;;;8.20;100.00;98049.44;5074795;28;20043;-38
2023/03/26 02:38:42;;;;;;;14.07;8.55;;;;;;;8.33;100.00;98071.19;5052053;28;20506;-37
2023/03/26 02:41:09;;;;;;;12.70;8.18;;;;;;;8.34;100.00;98079.81;5102412;27;20139;-39
2023/03/26 02:43:55;;;;;;;14.48;8.02;;;;;;;8.32;99.76;98082.47;5106204;28;20417;-39
2023/03/26 02:46:25;;;;;;;14.75;7.93;;;;;;;8.29;99.32;98076.59;5089311;28;20043;-38
2023/03/26 02:49:10;;;;;;;15.45;8.65;;;;;;;8.29;99.09;98063.63;5086660;28;20045;-37
2023/03/26 02:51:36;;;;;;;12.50;8.00;;;;;;;8.28;98.90;98056.78;5051329;28;20040;-37
2023/03/26 02:54:17;;;;;;;14.38;7.78;;;;;;;8.24;98.90;98063.03;5068984;28;20466;-38
2023/03/26 02:57:10;;;;;;;12.93;8.02;;;;;;;8.08;98.20;98047.44;5084919;28;20129;-37
2023/03/26 02:59:35;;;;;;;13.48;7.97;;;;;;;8.20;98.32;98059.78;5088964;28;20145;-38
2023/03/26 03:02:29;;;;;;;14.05;7.72;;;;;;;8.16;98.44;98049.66;5088834;28;20040;-39
2023/03/26 03:05:01;;;;;;;12.00;7.90;;;;;;;8.03;97.86;98024.38;5077901;28;20044;-37
2023/03/26 03:07:31;;;;;;;14.73;8.07;;;;;;;8.19;97.79;98057.25;5060531;28;20508;-38
2023/03/26 03:10:01;;;;;;;13.38;8.00;;;;;;;8.16;97.60;98047.06;5068531;28;20059;-39
2023/03/26 03:12:55;;;;;;;15.73;8.30;;;;;;;8.15;97.30;98046.22;5069111;28;20314;-39
2023/03/26 03:15:23;;;;;;;11.43;7.78;;;;;;;8.15;97.45;98046.22;5072310;28;20135;-37
2023/03/26 03:17:49;;;;;;;12.93;8.48;;;;;;;8.15;97.38;98051.41;5089473;28;20028;-38
2023/03/26 03:20:15;;;;;;;17.15;8.15;;;;;;;8.14;97.22;98033.34;5051495;28;20423;-39
2023/03/26 03:22:42;;;;;;;16.02;8.65;;;;;;;8.15;97.28;98038.47;5074103;28;20036;-38
2023/03/26 03:25:13;;;;;;;16.58;8.93;;;;;;;8.14;97.18;98033.34;5087000;28;20532;-38
2023/03/26 03:27:41;;;;;;;20.05;9.02;;;;;;;8.12;97.16;98035.19;5071519;28;20065;-39
2023/03/26 03:30:12;;;;;;;14.00;9.50;;;;;;;8.00;97.21;98008.19;5055444;28;20036;-38
2023/03/26 03:32:44;;;;;;;13.50;9.23;;;;;;;7.97;97.30;97995.38;5082471;28;20046;-37
2023/03/26 03:35:12;;;;;;;14.70;8.68;;;;;;;8.17;97.05;98028.00;5053960;28;20418;-38
2023/03/26 03:37:40;;;;;;;14.45;8.82;;;;;;;8.18;97.04;98027.94;5038678;28;20036;-37
2023/03/26 03:40:09;;;;;;;13.52;8.93;;;;;;;8.18;97.08;98021.94;5088065;28;20140;-38
2023/03/26 03:42:36;;;;;;;19.33;9.87;;;;;;;8.19;96.96;98016.69;5070151;28;20063;-39
2023/03/26 03:45:05;;;;;;;14.23;9.18;;;;;;;8.20;96.78;98012.34;5088032;28;20476;-39
2023/03/26 03:47:56;;;;;;;14.50;9.43;;;;;;;8.19;96.70;98008.06;5057262;28;20048;-37
2023/03/26 03:50:42;;;;;;;17.70;10.00;;;;;;;8.09;96.62;97993.03;5067200;28;20051;-38
2023/03/26 03:53:35;;;;;;;15.95;10.60;;;;;;;8.20;96.95;98007.16;5079424;28;20097;-39
2023/03/26 03:56:08;;;;;;;18.48;10.05;;;;;;;8.02;96.52;97975.28;5070583;28;20130;-39
2023/03/26 03:58:53;;;;;;;17.65;11.15;;;;;;;7.92;96.34;97956.81;5086343;28;21372;-38
2023/03/26 04:01:29;;;;;;;22.85;12.20;;;;;;;8.24;96.53;98006.09;5059493;28;20550;-37
2023/03/26 04:04:08;;;;;;;18.50;11.15;;;;;;;8.07;96.41;97971.56;5067316;28;20040;-38
2023/03/26 04:06:57;;;;;;;20.90;11.63;;;;;;;8.28;96.47;97997.25;5050930;28;20060;-37
2023/03/26 04:09:26;;;;;;;21.10;10.82;;;;;;;8.30;96.60;97998.03;5087568;28;20081;-38
2023/03/26 04:11:56;;;;;;;19.77;10.88;;;;;;;8.20;96.25;97970.94;5070050;28;20059;-37
2023/03/26 04:14:40;;;;;;;19.92;11.23;;;;;;;8.33;96.64;97996.13;5081983;28;20388;-38
2023/03/26 04:17:14;;;;;;;20.33;11.10;;;;;;;8.24;96.38;97970.69;5041158;28;20048;-38
2023/03/26 04:19:43;;;;;;;21.50;12.05;;;;;;;8.25;96.19;97959.41;5085552;28;20063;-38
2023/03/26 04:22:10;;;;;;;22.17;12.10;;;;;;;8.33;96.12;97974.56;5087383;28;20447;-39
2023/03/26 04:24:49;;;;;;;23.65;13.88;;;;;;;8.40;96.14;97987.13;5072348;28;20055;-38
2023/03/26 04:27:40;;;;;;;22.13;13.43;;;;;;;8.43;96.41;97978.34;5080065;28;20040;-37
2023/03/26 04:30:19;;;;;;;25.15;14.55;;;;;;;8.46;96.06;97979.03;5054471;28;20085;-39
2023/03/26 04:32:51;;;;;;;26.75;15.02;;;;;;;8.44;96.21;97974.84;5051432;28;20508;-37
2023/03/26 04:35:18;;;;;;;27.33;15.25;;;;;;;8.49;96.30;97972.84;5034752;28;20040;-37
2023/03/26 04:37:49;;;;;;;27.48;14.80;;;;;;;8.43;96.16;97957.63;5053969;28;20086;-38
2023/03/26 04:40:21;;;;;;;26.08;15.40;;;;;;;8.44;96.34;97951.53;5055160;28;20043;-38
2023/03/26 04:42:57;;;;;;;25.52;15.68;;;;;;;8.60;96.12;97972.28;5065031;28;20047;-38
2023/03/26 04:45:46;;;;;;;25.23;14.98;;;;;;;8.63;96.28;97967.78;5068914;28;20570;-38
2023/03/26 04:48:13;;;;;;;26.60;15.32;;;;;;;8.68;96.07;97973.56;5066515;28;20040;-40
2023/03/26 04:50:44;;;;;;;26.35;15.80;;;;;;;8.72;96.07;97956.91;5066770;28;20421;-38
2023/03/26 04:53:14;;;;;;;25.42;14.75;;;;;;;8.73;95.85;97949.97;5058589;28;20099;-39
2023/03/26 04:56:10;;;;;;;28.25;15.57;;;;;;;8.72;95.74;97948.31;5085316;28;20066;-39
2023/03/26 04:59:03;;;;;;;25.65;14.88;;;;;;;8.80;95.55;97951.28;5051034;28;20439;-40
2023/03/26 05:01:36;;;;;;;26.70;15.52;;;;;;;8.86;95.66;97957.00;5049620;28;20084;-38
2023/03/26 05:04:02;;;;;;;24.92;14.88;;;;;;;8.76;95.07;97926.47;5066707;28;20044;-38
2023/03/26 05:06:29;;;;;;;25.08;14.55;;;;;;;8.93;95.30;97947.13;5066799;28;20045;-38
2023/03/26 05:08:55;;;;;;;28.33;15.98;;;;;;;8.77;94.80;97908.28;5052504;28;20691;-38
2023/03/26 05:11:42;;;;;;;30.58;15.50;;;;;;;9.05;94.67;97943.88;5068195;28;20159;-38
2023/03/26 05:14:08;;;;;;;24.65;15.02;;;;;;;9.08;94.11;97942.84;5080678;28;20134;-39
2023/03/26 05:16:35;;;;;;;24.40;14.95;;;;;;;9.10;94.54;97941.00;5069912;28;20499;-39
2023/03/26 05:19:07;;;;;;;28.67;15.85;;;;;;;9.13;93.82;97939.06;5086864;28;20048;-39
2023/03/26 05:21:35;;;;;;;28.83;16.80;;;;;;;9.03;93.82;97908.56;5086596;28;20039;-38
2023/03/26 05:24:01;;;;;;;29.45;16.35;;;;;;;9.20;93.58;97932.63;5085905;28;20493;-38
2023/03/26 05:26:28;;;;;;;29.17;17.05;;;;;;;9.24;93.13;97933.28;5066499;28;20051;-38
2023/03/26 05:28:55;;;;;;;28.20;16.58;;;;;;;9.24;92.53;97934.13;5066583;28;20098;-38
2023/03/26 05:31:43;;;;;;;30.75;16.27;;;;;;;9.21;93.02;97923.09;5067719;28;20127;-39
2023/03/26 05:34:10;;;;;;;26.23;17.08;;;;;;;9.32;92.81;97937.09;5033268;28;20194;-39
2023/03/26 05:36:36;;;;;;;29.25;16.95;;;;;;;9.39;92.06;97936.75;5033261;28;20064;-38
2023/03/26 05:39:26;;;;;;;27.73;17.23;;;;;;;9.42;91.80;97934.81;5061491;28;20060;-38
2023/03/26 05:41:58;;;;;;;27.30;16.73;;;;;;;9.46;91.30;97938.06;5074606;28;20059;-38
2023/03/26 05:44:34;;;;;;;26.73;16.17;;;;;;;9.51;91.21;97934.28;5054762;28;20032;-37
2023/03/26 05:47:04;;;;;;;29.40;16.65;;;;;;;9.51;91.00;97934.28;5070367;28;20040;-38
2023/03/26 05:49:30;;;;;;;31.08;16.55;;;;;;;9.57;90.78;97933.09;5085959;28;20120;-39
2023/03/26 05:51:56;;;;;;;29.23;16.15;;;;;;;9.60;90.61;97931.16;5082865;28;20047;-38
2023/03/26 05:54:37;;;;;;;31.58;17.45;;;;;;;9.62;90.41;97931.06;5065230;28;20097;-38
2023/03/26 05:57:22;;;;;;;29.58;16.83;;;;;;;9.65;90.14;97934.31;5072409;28;20051;-39
2023/03/26 06:00:09;;;;;;;29.58;17.00;;;;;;;9.69;89.62;97929.78;5087801;28;20048;-38
2023/03/26 06:02:45;;;;;;;33.42;17.75;;;;;;;9.65;89.63;97925.69;5068351;28;20044;-38
2023/03/26 06:05:36;;;;;;;29.17;17.17;;;;;;;9.70;89.49;97928.84;5086372;28;20067;-37
2023/03/26 06:08:32;;;;;;;32.40;17.50;;;;;;;9.40;89.51;97881.38;5075539;28;20127;-49
2023/03/26 06:11:03;;;;;;;30.00;17.27;;;;;;;9.56;89.89;97913.28;5069447;28;20078;-39
2023/03/26 06:13:34;;;;;;;31.58;18.35;;;;;;;9.59;89.91;97919.09;5085983;28;20085;-38
2023/03/26 06:16:00;;;;;;;31.25;17.85;;;;;;;9.64;89.83;97909.28;5072098;28;20036;-39
2023/03/26 06:18:39;;;;;;;32.53;17.80;;;;;;;9.36;89.69;97862.56;5088474;28;20044;-38
2023/03/26 06:21:43;;;;;;;36.55;18.90;;;;;;;9.66;90.38;97904.84;5067544;28;20044;-38
2023/03/26 06:24:18;;;;;;;35.35;18.50;;;;;;;9.73;90.37;97895.75;5051698;28;20052;-39
2023/03/26 06:27:09;;;;;;;34.67;18.13;;;;;;;9.81;90.77;97900.50;5063902;28;20054;-38
2023/03/26 06:30:10;;;;;;;32.97;17.23;;;;;;;9.87;90.16;97894.97;5085897;28;20047;-38
2023/03/26 06:32:53;;;;;;;35.40;18.42;;;;;;;9.91;90.14;97896.44;5057226;28;20044;-38
2023/03/26 06:35:24;;;;;;;33.00;19.48;;;;;;;9.78;90.05;97856.59;5056594;28;20067;-38
2023/03/26 06:37:50;;;;;;;34.20;19.02;;;;;;;9.78;90.17;97861.78;5074091;28;20040;-38
2023/03/26 06:40:16;;;;;;;38.35;19.65;;;;;;;9.81;90.23;97861.59;5052585;28;20051;-39
2023/03/26 06:42:54;;;;;;;36.47;20.10;;;;;;;9.88;90.46;97878.47;5067649;28;20055;-38
2023/03/26 06:45:41;;;;;;;34.85;18.58;;;;;;;9.91;90.40;97874.84;5086159;28;20052;-39
2023/03/26 06:48:25;;;;;;;38.03;19.33;;;;;;;9.93;90.11;97873.00;5079708;28;20040;-38
2023/03/26 06:51:11;;;;;;;40.20;20.83;;;;;;;9.96;90.87;97876.22;5077707;28;20072;-39
2023/03/26 06:53:56;;;;;;;35.75;17.77;;;;;;;10.01;90.40;97878.53;5068820;28;20068;-38
2023/03/26 06:56:41;;;;;;;32.80;17.80;;;;;;;10.01;90.92;97876.78;5075756;28;20087;-39
2023/03/26 06:59:20;;;;;;;39.13;18.92;;;;;;;10.01;91.24;97870.75;5074051;28;20072;-38
2023/03/26 07:02:05;;;;;;;35.92;18.98;;;;;;;10.00;91.45;97869.09;5088178;28;20052;-39
2023/03/26 07:04:49;;;;;;;42.83;20.15;;;;;;;9.93;91.91;97866.03;5088195;28;20035;-39
2023/03/26 07:07:34;;;;;;;42.85;19.77;;;;;;;9.84;91.97;97860.59;5090198;28;20427;-38
2023/03/26 07:10:18;;;;;;;36.92;19.05;;;;;;;9.82;92.39;97862.44;5090157;28;20054;-37
2023/03/26 07:12:56;;;;;;;41.33;19.17;;;;;;;9.79;93.37;97863.44;5088188;28;20044;-38
2023/03/26 07:15:34;;;;;;;33.10;17.55;;;;;;;9.59;93.97;97830.91;5089788;28;20035;-45
2023/03/26 07:18:26;;;;;;;38.58;18.52;;;;;;;9.69;94.20;97852.78;5072686;28;20642;-38
2023/03/26 07:20:53;;;;;;;37.05;17.42;;;;;;;9.64;95.10;97846.19;5072586;28;20469;-39
2023/03/26 07:23:21;;;;;;;33.45;18.45;;;;;;;9.62;96.04;97838.53;5069883;28;20116;-38
2023/03/26 07:25:55;;;;;;;31.60;16.42;;;;;;;9.60;96.54;97842.13;5080093;28;20040;-39
2023/03/26 07:28:38;;;;;;;36.78;18.15;;;;;;;9.57;97.66;97830.19;5088164;28;20111;-39
2023/03/26 07:31:21;;;;;;;36.58;17.27;;;;;;;9.63;97.76;97834.97;5054923;28;20055;-38
2023/03/26 07:34:05;;;;;;;35.50;16.90;;;;;;;9.67;98.30;97828.69;5066074;28;20044;-38
2023/03/26 07:37:02;;;;;;;35.22;18.17;;;;;;;9.70;98.84;97827.66;5068390;28;20428;-39
2023/03/26 07:39:48;;;;;;;39.13;17.52;;;;;;;9.69;98.79;97820.81;5050862;28;20458;-38
2023/03/26 07:43:12;;;;;;;39.15;17.38;;;;;;;9.66;99.42;97821.84;5075235;28;20067;-38
2023/03/26 07:45:57;;;;;;;31.92;15.98;;;;;;;9.63;100.00;97829.78;5052953;28;20143;-38
2023/03/26 07:48:48;;;;;;;28.38;14.32;;;;;;;9.63;100.00;97816.81;5081355;28;20070;-39
2023/03/26 07:51:34;;;;;;;28.63;14.57;;;;;;;9.52;100.00;97802.84;5068621;28;20047;-38
2023/03/26 07:54:29;;;;;;;27.13;13.35;;;;;;;9.64;100.00;97817.66;5073751;28;20046;-36
2023/03/26 07:57:02;;;;;;;25.05;12.55;;;;;;;9.66;100.00;97814.06;5087938;28;20036;-37
2023/03/26 08:00:00;;;;;;;28.23;13.18;;;;;;;9.63;100.00;97803.03;5085160;28;20121;-37
2023/03/26 08:03:05;;;;;;;22.17;11.40;;;;;;;9.58;100.00;97805.03;5086103;28;20031;-38
2023/03/26 08:05:57;;;;;;;19.77;10.88;;;;;;;9.50;100.00;97800.34;5075600;28;20420;-37
2023/03/26 08:09:10;;;;;;;21.75;10.65;;;;;;;9.48;100.00;97797.00;5066545;28;20036;-38
2023/03/26 08:12:17;;;;;;;22.23;11.15;;;;;;;9.46;100.00;97785.88;5066068;28;20159;-39
2023/03/26 08:15:02;;;;;;;18.27;10.23;;;;;;;9.46;100.00;97778.09;5072733;28;20151;-38
2023/03/26 08:17:34;;;;;;;19.70;10.13;;;;;;;9.45;100.00;97778.19;5068217;28;20052;-38
2023/03/26 08:20:11;;;;;;;20.65;10.20;;;;;;;9.49;100.00;97785.69;5068605;28;20032;-36
2023/03/26 08:22:42;;;;;;;22.27;11.73;;;;;;;9.49;100.00;97775.31;5067924;28;20099;-37
2023/03/26 08:25:31;;;;;;;19.40;10.43;;;;;;;9.47;100.00;97773.75;5075932;28;20043;-37
2023/03/26 08:28:16;;;;;;;22.42;11.38;;;;;;;9.42;100.00;97768.81;5087234;28;20062;-38
2023/03/26 08:30:42;;;;;;;22.65;11.35;;;;;;;9.34;100.00;97768.47;5063436;28;20127;-38
2023/03/26 08:33:12;;;;;;;16.10;9.95;;;;;;;9.30;100.00;97773.00;5079046;28;20051;-38
2023/03/26 08:35:41;;;;;;;16.40;9.02;;;;;;;9.24;100.00;97763.00;5051280;28;20063;-37
2023/03/26 08:38:09;;;;;;;17.33;10.00;;;;;;;9.25;100.00;97769.03;5058593;28;20582;-39
2023/03/26 08:40:41;;;;;;;16.92;9.73;;;;;;;9.20;100.00;97766.69;5069891;28;20032;-38
2023/03/26 08:43:34;;;;;;;16.88;9.70;;;;;;;9.16;100.00;97764.38;5085652;28;20189;-37
2023/03/26 08:46:29;;;;;;;17.67;9.18;;;;;;;9.14;100.00;97759.28;5085535;28;20128;-38
2023/03/26 08:48:57;;;;;;;13.90;8.75;;;;;;;9.15;100.00;97749.75;5083789;28;20511;-38
2023/03/26 08:52:17;;;;;;;16.90;10.53;;;;;;;9.17;100.00;97748.72;5079741;28;20568;-38
2023/03/26 08:54:52;;;;;;;13.98;8.55;;;;;;;9.15;100.00;97750.59;5033997;28;20799;-39
2023/03/26 08:57:36;;;;;;;14.77;9.07;;;;;;;9.15;100.00;97740.22;5065708;28;20048;-39
2023/03/26 09:00:40;;;;;;;12.73;8.65;;;;;;;9.14;100.00;97738.53;5067572;28;20131;-38
2023/03/26 09:03:11;;;;;;;13.30;8.35;;;;;;;9.11;100.00;97736.13;5067938;28;20508;-38
2023/03/26 09:05:43;;;;;;;12.18;8.05;;;;;;;9.10;100.00;97742.25;5068111;28;20044;-38
2023/03/26 09:08:46;;;;;;;14.48;7.82;;;;;;;9.11;100.00;97730.94;5067449;28;20040;-38
2023/03/26 09:11:18;;;;;;;11.20;6.95;;;;;;;9.10;100.00;97736.22;5067996;28;20036;-37
2023/03/26 09:14:09;;;;;;;12.65;7.35;;;;;;;9.07;100.00;97731.22;5050065;28;20039;-39
2023/03/26 09:16:37;;;;;;;10.45;6.95;;;;;;;9.08;100.00;97730.28;5067807;28;20040;-37
2023/03/26 09:19:22;;;;;;;13.82;7.40;;;;;;;9.04;100.00;97724.47;5049339;28;20130;-38
2023/03/26 09:22:22;;;;;;;12.95;7.82;;;;;;;9.03;100.00;97722.78;5082836;28;20056;-38
2023/03/26 09:25:07;;;;;;;12.82;7.75;;;;;;;9.04;100.00;97714.09;5067921;28;20550;-38
2023/03/26 09:28:06;;;;;;;11.13;7.10;;;;;;;8.97;100.00;97710.19;5079253;28;20135;-38
2023/03/26 09:30:57;;;;;;;14.77;8.43;;;;;;;8.97;100.00;97709.38;5078533;28;20202;-39
2023/03/26 09:33:32;;;;;;;11.15;6.07;;;;;;;8.97;100.00;97701.59;5069634;28;20715;-38
2023/03/26 09:36:07;;;;;;;11.68;6.85;;;;;;;8.91;100.00;97713.16;5068227;28;20127;-38
2023/03/26 09:38:42;;;;;;;9.57;6.35;;;;;;;8.93;100.00;97716.50;5075207;28;20044;-38
2023/03/26 09:41:20;;;;;;;11.13;6.70;;;;;;;8.90;100.00;97711.47;5073066;28;20071;-38
2023/03/26 09:44:08;;;;;;;10.88;6.22;;;;;;;8.87;100.00;97714.25;5069883;28;20031;-43
2023/03/26 09:46:53;;;;;;;10.35;5.60;;;;;;;8.84;100.00;97712.69;5091032;28;20044;-39
2023/03/26 09:49:30;;;;;;;10.13;5.50;;;;;;;8.81;100.00;97704.25;5070796;28;20113;-39
2023/03/26 09:52:08;;;;;;;9.05;4.75;;;;;;;8.72;100.00;97699.63;5068138;28;20119;-38
2023/03/26 09:54:50;;;;;;;10.07;6.50;;;;;;;8.66;100.00;97697.38;5088596;28;20044;-38
2023/03/26 09:57:58;;;;;;;9.40;5.57;;;;;;;8.68;100.00;97698.13;5060948;28;20081;-36
2023/03/26 10:00:24;;;;;;;11.27;6.18;;;;;;;8.69;100.00;97689.44;5076746;28;20048;-38
2023/03/26 10:02:57;;;;;;;11.82;6.32;;;;;;;8.69;100.00;97679.88;5089700;28;20051;-36
2023/03/26 10:05:48;;;;;;;8.98;5.43;;;;;;;8.67;100.00;97684.34;5084063;28;20044;-38
2023/03/26 10:08:29;;;;;;;8.07;4.65;;;;;;;8.62;100.00;97682.94;5069946;28;20040;-38
2023/03/26 10:11:21;;;;;;;12.18;6.15;;;;;;;8.59;100.00;97672.75;5069627;28;20348;-39
2023/03/26 10:14:06;;;;;;;8.07;4.82;;;;;;;8.57;100.00;97682.38;5060777;28;20054;-38
2023/03/26 10:17:24;;;;;;;10.10;4.97;;;;;;;8.52;100.00;97685.25;5085837;28;20108;-39
2023/03/26 10:20:08;;;;;;;10.57;5.13;;;;;;;8.51;100.00;97683.56;5049976;28;20083;-38
2023/03/26 10:22:34;;;;;;;14.50;6.22;;;;;;;8.51;100.00;97673.22;5035883;28;20040;-39
2023/03/26 10:25:28;;;;;;;7.63;4.75;;;;;;;8.55;100.00;97671.28;5055546;28;20095;-36
2023/03/26 10:28:26;;;;;;;11.82;7.05;;;;;;;8.67;100.00;97673.16;5043721;28;20555;-37
2023/03/26 10:31:22;;;;;;;9.20;5.20;;;;;;;8.65;100.00;97670.63;5047234;28;20041;-38
2023/03/26 10:34:05;;;;;;;8.40;5.20;;;;;;;8.63;100.00;97675.09;5047217;28;20041;-39
2023/03/26 10:36:36;;;;;;;22.33;10.25;;;;;;;8.63;100.00;97664.75;5030474;28;20049;-39
2023/03/26 10:39:11;;;;;;;9.93;5.78;;;;;;;8.65;100.00;97662.88;5047341;28;20119;-39
2023/03/26 10:41:52;;;;;;;7.05;5.15;;;;;;;8.64;100.00;97663.78;5046774;28;20622;-39
2023/03/26 10:44:49;;;;;;;8.00;5.40;;;;;;;8.67;100.00;97660.19;5046139;28;20051;-39
2023/03/26 10:47:19;;;;;;;7.15;4.65;;;;;;;8.69;100.00;97666.94;5047989;28;20155;-38
2023/03/26 10:49:51;;;;;;;8.02;5.07;;;;;;;8.67;100.00;97660.19;5046827;28;20423;-38
2023/03/26 10:52:23;;;;;;;7.70;4.13;;;;;;;8.50;100.00;97628.34;5070281;28;20040;-39
2023/03/26 10:54:53;;;;;;;15.45;8.20;;;;;;;8.70;100.00;97655.66;5092360;28;20069;-39
2023/03/26 10:57:18;;;;;;;;;;;;;;;8.71;100.00;97648.72;5070708;28;20133;-36
2023/03/26 10:59:44;;;;;;;10.27;5.10;;;;;;;8.70;100.00;97649.66;5088595;28;19969;-38
2023/03/26 11:02:25;;;;;;;7.10;4.93;;;;;;;8.71;100.00;97652.16;5071826;28;20032;-38
2023/03/26 11:05:32;;;;;;;6.32;4.80;;;;;;;8.71;100.00;97638.38;5100951;28;20097;-36
2023/03/26 11:08:45;;;;;;;9.05;4.53;;;;;;;8.70;100.00;97641.88;5086832;28;20065;-38
2023/03/26 11:11:31;;;;;;;6.53;4.57;;;;;;;8.67;100.00;97648.09;5051240;28;20516;-38
2023/03/26 11:14:15;;;;;;;6.80;5.05;;;;;;;8.61;100.00;97642.44;5080213;28;20071;-38
2023/03/26 11:17:04;;;;;;;7.90;4.70;;;;;;;8.60;100.00;97643.34;5078094;28;20032;-37
2023/03/26 11:19:33;;;;;;;8.65;4.95;;;;;;;8.60;100.00;97645.94;5088400;28;20044;-37
2023/03/26 11:22:27;;;;;;;8.13;5.22;;;;;;;8.61;100.00;97634.66;5087996;28;20048;-37
2023/03/26 11:25:05;;;;;;;7.30;4.93;;;;;;;8.62;100.00;97636.31;5118225;27;20067;-38
2023/03/26 11:27:40;;;;;;;8.23;5.47;;;;;;;8.63;100.00;97640.59;5089301;28;20396;-36
2023/03/26 11:30:09;;;;;;;8.88;6.13;;;;;;;8.64;100.00;97637.06;5089386;28;20036;-38
2023/03/26 11:32:43;;;;;;;9.43;5.97;;;;;;;8.68;100.00;97636.81;5086261;28;20370;-37
2023/03/26 11:35:31;;;;;;;9.13;6.05;;;;;;;8.77;100.00;97632.81;5055936;28;20066;-37
2023/03/26 11:38:03;;;;;;;11.15;6.68;;;;;;;8.72;100.00;97630.50;5065345;28;20044;-37
2023/03/26 11:40:34;;;;;;;10.25;6.57;;;;;;;8.57;100.00;97594.34;5032505;28;20424;-38
2023/03/26 11:43:02;;;;;;;12.23;8.55;;;;;;;8.76;100.00;97620.78;5086294;28;20052;-38
2023/03/26 11:45:35;;;;;;;11.25;7.30;;;;;;;8.83;100.00;97635.88;5087448;28;20085;-37
2023/03/26 11:48:09;;;;;;;11.23;7.72;;;;;;;8.83;100.00;97630.72;5085809;28;20096;-38
2023/03/26 11:50:41;;;;;;;11.20;7.75;;;;;;;8.77;100.00;97623.28;5087416;28;20051;-38
2023/03/26 11:53:16;;;;;;;10.50;7.35;;;;;;;8.71;100.00;97620.22;5079321;28;20072;-36
2023/03/26 11:56:02;;;;;;;15.70;8.70;;;;;;;8.62;100.00;97618.19;5077190;28;20093;-44
2023/03/26 11:58:30;;;;;;;17.50;11.30;;;;;;;8.61;100.00;97611.34;5087979;28;20043;-38
2023/03/26 12:00:56;;;;;;;22.10;11.38;;;;;;;8.63;100.00;97625.06;5088983;28;20074;-39
2023/03/26 12:03:23;;;;;;;22.23;12.32;;;;;;;8.59;100.00;97606.25;5070925;28;20043;-38
2023/03/26 12:05:52;;;;;;;20.90;11.65;;;;;;;8.66;100.00;97617.91;5066778;28;20047;-37
2023/03/26 12:08:20;;;;;;;;;;;;;;;8.70;100.00;97610.78;5066673;28;20068;-36
2023/03/26 12:11:00;;;;;;;19.50;11.07;;;;;;;8.69;100.00;97607.38;5068713;28;19923;-37
2023/03/26 12:13:43;;;;;;;29.23;13.77;;;;;;;8.68;100.00;97618.69;5087081;28;20480;-38